sensor_id;sensor_type;location;lat;lon;timestamp;pressure;altitude;pressure_sealevel;temperature;humidity
54900;BME280;40801;41.924;25.562;2024-02-15T00:00:36;99858.16;;;9.36;54.54
54900;BME280;40801;41.924;25.562;2024-02-15T00:03:02;99856.03;;;9.32;54.70
54900;BME280;40801;41.924;25.562;2024-02-15T00:05:28;99865.91;;;9.42;54.39
54900;BME280;40801;41.924;25.562;2024-02-15T00:07:54;99868.31;;;9.44;54.31
54900;BME280;40801;41.924;25.562;2024-02-15T00:10:19;99865.16;;;9.37;54.84
54900;BME280;40801;41.924;25.562;2024-02-15T00:12:48;99868.88;;;9.41;54.57
54900;BME280;40801;41.924;25.562;2024-02-15T00:15:15;99867.31;;;9.35;55.11
54900;BME280;40801;41.924;25.562;2024-02-15T00:17:41;99867.09;;;9.31;55.14
54900;BME280;40801;41.924;25.562;2024-02-15T00:20:06;99870.88;;;9.30;54.89
54900;BME280;40801;41.924;25.562;2024-02-15T00:22:36;99864.72;;;9.24;54.70
54900;BME280;40801;41.924;25.562;2024-02-15T00:25:01;99866.06;;;9.27;55.21
54900;BME280;40801;41.924;25.562;2024-02-15T00:27:27;99870.38;;;9.23;54.52
54900;BME280;40801;41.924;25.562;2024-02-15T00:29:53;99876.19;;;9.06;55.11
54900;BME280;40801;41.924;25.562;2024-02-15T00:32:18;99862.34;;;9.18;54.86
54900;BME280;40801;41.924;25.562;2024-02-15T00:34:44;99861.56;;;9.17;55.21
54900;BME280;40801;41.924;25.562;2024-02-15T00:37:09;99865.09;;;9.13;55.23
54900;BME280;40801;41.924;25.562;2024-02-15T00:39:35;99854.38;;;9.08;55.31
54900;BME280;40801;41.924;25.562;2024-02-15T00:42:00;99860.53;;;9.13;55.54
54900;BME280;40801;41.924;25.562;2024-02-15T00:44:26;99867.75;;;9.18;55.71
54900;BME280;40801;41.924;25.562;2024-02-15T00:46:52;99864.00;;;9.14;55.49
54900;BME280;40801;41.924;25.562;2024-02-15T00:49:17;99870.72;;;9.16;55.91
54900;BME280;40801;41.924;25.562;2024-02-15T00:51:45;99861.50;;;9.22;55.70
54900;BME280;40801;41.924;25.562;2024-02-15T00:54:11;99865.84;;;9.18;55.92
54900;BME280;40801;41.924;25.562;2024-02-15T00:56:36;99861.09;;;9.10;55.43
54900;BME280;40801;41.924;25.562;2024-02-15T00:59:01;99858.59;;;9.19;55.63
54900;BME280;40801;41.924;25.562;2024-02-15T01:01:28;99864.75;;;9.19;54.95
54900;BME280;40801;41.924;25.562;2024-02-15T01:03:54;99856.19;;;9.17;55.55
54900;BME280;40801;41.924;25.562;2024-02-15T01:06:19;99858.63;;;9.14;55.42
54900;BME280;40801;41.924;25.562;2024-02-15T01:08:45;99856.28;;;9.07;55.54
54900;BME280;40801;41.924;25.562;2024-02-15T01:11:10;99860.53;;;9.13;55.25
54900;BME280;40801;41.924;25.562;2024-02-15T01:13:35;99862.28;;;8.94;55.61
54900;BME280;40801;41.924;25.562;2024-02-15T01:16:01;99858.81;;;8.93;55.87
54900;BME280;40801;41.924;25.562;2024-02-15T01:18:28;99866.69;;;8.85;55.33
54900;BME280;40801;41.924;25.562;2024-02-15T01:20:55;99861.63;;;8.78;55.54
54900;BME280;40801;41.924;25.562;2024-02-15T01:23:21;99863.06;;;8.99;54.98
54900;BME280;40801;41.924;25.562;2024-02-15T01:25:47;99860.34;;;9.05;54.93
54900;BME280;40801;41.924;25.562;2024-02-15T01:28:13;99862.28;;;8.99;54.81
54900;BME280;40801;41.924;25.562;2024-02-15T01:30:38;99857.38;;;9.06;54.86
54900;BME280;40801;41.924;25.562;2024-02-15T01:33:04;99858.22;;;9.02;54.85
54900;BME280;40801;41.924;25.562;2024-02-15T01:35:29;99865.94;;;9.08;54.47
54900;BME280;40801;41.924;25.562;2024-02-15T01:37:54;99863.03;;;9.05;55.06
54900;BME280;40801;41.924;25.562;2024-02-15T01:40:20;99861.78;;;8.92;55.21
54900;BME280;40801;41.924;25.562;2024-02-15T01:42:45;99869.56;;;8.93;54.36
54900;BME280;40801;41.924;25.562;2024-02-15T01:45:11;99870.66;;;8.92;54.58
54900;BME280;40801;41.924;25.562;2024-02-15T01:47:38;99861.81;;;8.87;54.49
54900;BME280;40801;41.924;25.562;2024-02-15T01:50:05;99861.25;;;8.90;54.67
54900;BME280;40801;41.924;25.562;2024-02-15T01:52:31;99866.41;;;8.86;54.34
54900;BME280;40801;41.924;25.562;2024-02-15T01:54:57;99866.84;;;8.98;54.29
54900;BME280;40801;41.924;25.562;2024-02-15T01:57:23;99868.25;;;8.91;54.50
54900;BME280;40801;41.924;25.562;2024-02-15T01:59:51;99868.75;;;8.93;53.74
54900;BME280;40801;41.924;25.562;2024-02-15T02:02:18;99869.03;;;8.96;53.87
54900;BME280;40801;41.924;25.562;2024-02-15T02:04:45;99864.16;;;8.98;54.07
54900;BME280;40801;41.924;25.562;2024-02-15T02:07:11;99870.31;;;9.04;53.68
54900;BME280;40801;41.924;25.562;2024-02-15T02:09:36;99864.91;;;9.04;53.67
54900;BME280;40801;41.924;25.562;2024-02-15T02:12:02;99866.56;;;9.00;53.86
54900;BME280;40801;41.924;25.562;2024-02-15T02:14:29;99862.06;;;8.90;54.22
54900;BME280;40801;41.924;25.562;2024-02-15T02:16:54;99868.47;;;8.99;53.82
54900;BME280;40801;41.924;25.562;2024-02-15T02:19:20;99866.72;;;8.80;53.54
54900;BME280;40801;41.924;25.562;2024-02-15T02:21:45;99872.81;;;8.90;53.86
54900;BME280;40801;41.924;25.562;2024-02-15T02:24:21;99869.28;;;8.95;53.47
54900;BME280;40801;41.924;25.562;2024-02-15T02:26:47;99873.94;;;8.84;54.13
54900;BME280;40801;41.924;25.562;2024-02-15T02:29:14;99871.78;;;8.86;53.66
54900;BME280;40801;41.924;25.562;2024-02-15T02:31:39;99868.09;;;8.77;54.03
54900;BME280;40801;41.924;25.562;2024-02-15T02:34:05;99871.31;;;8.79;53.75
54900;BME280;40801;41.924;25.562;2024-02-15T02:36:33;99887.91;;;8.86;53.72
54900;BME280;40801;41.924;25.562;2024-02-15T02:38:58;99884.56;;;8.71;54.04
54900;BME280;40801;41.924;25.562;2024-02-15T02:41:26;99886.91;;;8.77;53.86
54900;BME280;40801;41.924;25.562;2024-02-15T02:43:54;99887.44;;;8.79;54.24
54900;BME280;40801;41.924;25.562;2024-02-15T02:46:20;99889.03;;;8.80;53.43
54900;BME280;40801;41.924;25.562;2024-02-15T02:48:45;99889.53;;;8.87;53.46
54900;BME280;40801;41.924;25.562;2024-02-15T02:51:11;99888.72;;;8.87;53.77
54900;BME280;40801;41.924;25.562;2024-02-15T02:53:36;99890.38;;;8.83;53.60
54900;BME280;40801;41.924;25.562;2024-02-15T02:56:01;99889.03;;;8.80;54.05
54900;BME280;40801;41.924;25.562;2024-02-15T02:58:27;99889.28;;;8.84;53.44
54900;BME280;40801;41.924;25.562;2024-02-15T03:00:54;99893.84;;;8.83;54.30
54900;BME280;40801;41.924;25.562;2024-02-15T03:03:20;99885.06;;;8.73;53.69
54900;BME280;40801;41.924;25.562;2024-02-15T03:05:45;99881.34;;;8.68;53.71
54900;BME280;40801;41.924;25.562;2024-02-15T03:08:11;99888.84;;;8.66;54.52
54900;BME280;40801;41.924;25.562;2024-02-15T03:10:38;99884.28;;;8.72;54.34
54900;BME280;40801;41.924;25.562;2024-02-15T03:13:04;99882.34;;;8.78;53.97
54900;BME280;40801;41.924;25.562;2024-02-15T03:15:30;99884.75;;;8.79;53.72
54900;BME280;40801;41.924;25.562;2024-02-15T03:17:58;99887.97;;;8.81;54.07
54900;BME280;40801;41.924;25.562;2024-02-15T03:20:23;99884.06;;;8.58;54.55
54900;BME280;40801;41.924;25.562;2024-02-15T03:22:58;99882.13;;;8.69;54.04
54900;BME280;40801;41.924;25.562;2024-02-15T03:25:25;99880.53;;;8.63;54.04
54900;BME280;40801;41.924;25.562;2024-02-15T03:27:54;99886.44;;;8.70;53.75
54900;BME280;40801;41.924;25.562;2024-02-15T03:30:22;99888.69;;;8.53;54.59
54900;BME280;40801;41.924;25.562;2024-02-15T03:32:49;99888.13;;;8.56;54.31
54900;BME280;40801;41.924;25.562;2024-02-15T03:35:17;99888.66;;;8.58;53.68
54900;BME280;40801;41.924;25.562;2024-02-15T03:37:42;99893.19;;;8.62;54.14
54900;BME280;40801;41.924;25.562;2024-02-15T03:40:08;99896.13;;;8.66;53.83
54900;BME280;40801;41.924;25.562;2024-02-15T03:42:35;99899.75;;;8.46;54.45
54900;BME280;40801;41.924;25.562;2024-02-15T03:45:06;99893.50;;;8.56;54.18
54900;BME280;40801;41.924;25.562;2024-02-15T03:47:32;99898.41;;;8.49;54.09
54900;BME280;40801;41.924;25.562;2024-02-15T03:50:04;99883.06;;;8.49;54.37
54900;BME280;40801;41.924;25.562;2024-02-15T03:52:30;99897.38;;;8.40;54.61
54900;BME280;40801;41.924;25.562;2024-02-15T03:54:57;99896.03;;;8.42;54.15
54900;BME280;40801;41.924;25.562;2024-02-15T03:57:23;99901.69;;;8.41;54.54
54900;BME280;40801;41.924;25.562;2024-02-15T03:59:48;99897.09;;;8.41;54.75
54900;BME280;40801;41.924;25.562;2024-02-15T04:02:20;99892.56;;;8.26;55.24
54900;BME280;40801;41.924;25.562;2024-02-15T04:04:48;99896.81;;;8.32;54.77
54900;BME280;40801;41.924;25.562;2024-02-15T04:07:15;99895.53;;;8.25;54.92
54900;BME280;40801;41.924;25.562;2024-02-15T04:09:41;99891.78;;;8.21;55.01
54900;BME280;40801;41.924;25.562;2024-02-15T04:12:07;99889.38;;;8.19;54.83
54900;BME280;40801;41.924;25.562;2024-02-15T04:14:33;99894.72;;;8.24;55.10
54900;BME280;40801;41.924;25.562;2024-02-15T04:16:59;99896.63;;;8.24;54.64
54900;BME280;40801;41.924;25.562;2024-02-15T04:19:25;99897.94;;;8.26;55.20
54900;BME280;40801;41.924;25.562;2024-02-15T04:21:50;99901.16;;;8.33;54.69
54900;BME280;40801;41.924;25.562;2024-02-15T04:24:16;99900.06;;;8.29;54.85
54900;BME280;40801;41.924;25.562;2024-02-15T04:26:42;99900.63;;;8.26;54.96
54900;BME280;40801;41.924;25.562;2024-02-15T04:29:07;99897.69;;;8.23;55.24
54900;BME280;40801;41.924;25.562;2024-02-15T04:31:34;99905.53;;;8.14;55.61
54900;BME280;40801;41.924;25.562;2024-02-15T04:34:02;99906.59;;;8.18;54.96
54900;BME280;40801;41.924;25.562;2024-02-15T04:36:28;99896.63;;;8.19;55.45
54900;BME280;40801;41.924;25.562;2024-02-15T04:38:59;99900.97;;;8.15;55.01
54900;BME280;40801;41.924;25.562;2024-02-15T04:41:26;99908.75;;;8.16;55.08
54900;BME280;40801;41.924;25.562;2024-02-15T04:43:52;99910.88;;;8.19;54.91
54900;BME280;40801;41.924;25.562;2024-02-15T04:46:18;99910.06;;;8.19;54.85
54900;BME280;40801;41.924;25.562;2024-02-15T04:48:47;99911.75;;;8.10;55.12
54900;BME280;40801;41.924;25.562;2024-02-15T04:51:15;99917.34;;;8.18;55.09
54900;BME280;40801;41.924;25.562;2024-02-15T04:53:42;99911.19;;;8.02;55.54
54900;BME280;40801;41.924;25.562;2024-02-15T04:56:07;99912.84;;;7.98;54.84
54900;BME280;40801;41.924;25.562;2024-02-15T04:58:41;99915.31;;;7.74;55.35
54900;BME280;40801;41.924;25.562;2024-02-15T05:01:14;99922.59;;;7.69;55.64
54900;BME280;40801;41.924;25.562;2024-02-15T05:03:41;99923.09;;;7.76;55.09
54900;BME280;40801;41.924;25.562;2024-02-15T05:06:07;99926.63;;;7.66;55.71
54900;BME280;40801;41.924;25.562;2024-02-15T05:08:33;99926.34;;;7.73;56.01
54900;BME280;40801;41.924;25.562;2024-02-15T05:11:01;99933.84;;;7.81;55.52
54900;BME280;40801;41.924;25.562;2024-02-15T05:13:29;99933.03;;;7.75;55.67
54900;BME280;40801;41.924;25.562;2024-02-15T05:15:55;99936.78;;;7.74;56.04
54900;BME280;40801;41.924;25.562;2024-02-15T05:18:20;99940.84;;;7.67;56.24
54900;BME280;40801;41.924;25.562;2024-02-15T05:20:46;99940.03;;;7.71;55.93
54900;BME280;40801;41.924;25.562;2024-02-15T05:23:11;99938.66;;;7.79;55.55
54900;BME280;40801;41.924;25.562;2024-02-15T05:25:37;99938.41;;;7.75;55.95
54900;BME280;40801;41.924;25.562;2024-02-15T05:28:03;99946.50;;;7.55;56.37
54900;BME280;40801;41.924;25.562;2024-02-15T05:30:30;99941.41;;;7.54;56.42
54900;BME280;40801;41.924;25.562;2024-02-15T05:32:58;99948.38;;;7.44;56.46
54900;BME280;40801;41.924;25.562;2024-02-15T05:35:23;99946.00;;;7.33;57.21
54900;BME280;40801;41.924;25.562;2024-02-15T05:37:50;99951.34;;;7.43;56.30
54900;BME280;40801;41.924;25.562;2024-02-15T05:40:17;99949.75;;;7.27;57.42
54900;BME280;40801;41.924;25.562;2024-02-15T05:42:44;99951.09;;;7.39;57.22
54900;BME280;40801;41.924;25.562;2024-02-15T05:47:48;99958.84;;;7.51;56.50
54900;BME280;40801;41.924;25.562;2024-02-15T05:50:13;99968.53;;;7.52;56.22
54900;BME280;40801;41.924;25.562;2024-02-15T05:52:40;99968.25;;;7.64;56.00
54900;BME280;40801;41.924;25.562;2024-02-15T05:55:07;99967.13;;;7.75;55.84
54900;BME280;40801;41.924;25.562;2024-02-15T05:57:33;99971.97;;;7.68;56.30
54900;BME280;40801;41.924;25.562;2024-02-15T05:59:58;99978.16;;;7.73;55.35
54900;BME280;40801;41.924;25.562;2024-02-15T06:02:27;99976.00;;;7.65;55.33
54900;BME280;40801;41.924;25.562;2024-02-15T06:04:52;99979.75;;;7.69;55.35
54900;BME280;40801;41.924;25.562;2024-02-15T06:07:19;99990.22;;;7.76;55.40
54900;BME280;40801;41.924;25.562;2024-02-15T06:09:46;99991.28;;;7.75;55.21
54900;BME280;40801;41.924;25.562;2024-02-15T06:12:11;99989.13;;;7.77;54.85
54900;BME280;40801;41.924;25.562;2024-02-15T06:14:36;99982.16;;;7.86;55.24
54900;BME280;40801;41.924;25.562;2024-02-15T06:17:02;99997.47;;;7.86;55.68
54900;BME280;40801;41.924;25.562;2024-02-15T06:19:27;99995.34;;;7.83;55.72
54900;BME280;40801;41.924;25.562;2024-02-15T06:21:53;99999.84;;;8.02;55.07
54900;BME280;40801;41.924;25.562;2024-02-15T06:24:18;100003.84;;;8.15;54.81
54900;BME280;40801;41.924;25.562;2024-02-15T06:26:44;100004.34;;;8.27;54.17
54900;BME280;40801;41.924;25.562;2024-02-15T06:29:10;100003.31;;;8.18;54.18
54900;BME280;40801;41.924;25.562;2024-02-15T06:31:54;100011.91;;;8.15;54.56
54900;BME280;40801;41.924;25.562;2024-02-15T06:34:38;100013.50;;;8.21;54.60
54900;BME280;40801;41.924;25.562;2024-02-15T06:37:35;100018.81;;;8.47;53.32
54900;BME280;40801;41.924;25.562;2024-02-15T06:40:19;100018.75;;;8.62;53.78
54900;BME280;40801;41.924;25.562;2024-02-15T06:42:45;100019.78;;;8.71;53.56
54900;BME280;40801;41.924;25.562;2024-02-15T06:45:11;100020.59;;;8.66;53.36
54900;BME280;40801;41.924;25.562;2024-02-15T06:47:41;100019.78;;;8.71;53.66
54900;BME280;40801;41.924;25.562;2024-02-15T06:50:13;100026.75;;;8.77;52.61
54900;BME280;40801;41.924;25.562;2024-02-15T06:52:39;100021.91;;;8.79;52.71
54900;BME280;40801;41.924;25.562;2024-02-15T06:55:09;100025.69;;;8.73;52.91
54900;BME280;40801;41.924;25.562;2024-02-15T06:57:38;100025.63;;;8.83;53.05
54900;BME280;40801;41.924;25.562;2024-02-15T07:00:06;100024.75;;;8.93;52.99
54900;BME280;40801;41.924;25.562;2024-02-15T07:02:35;100019.59;;;9.07;53.22
54900;BME280;40801;41.924;25.562;2024-02-15T07:05:01;100026.50;;;9.18;52.45
54900;BME280;40801;41.924;25.562;2024-02-15T07:07:28;100024.84;;;9.27;52.30
54900;BME280;40801;41.924;25.562;2024-02-15T07:09:53;100022.13;;;9.32;52.32
54900;BME280;40801;41.924;25.562;2024-02-15T07:12:19;100027.03;;;9.20;52.69
54900;BME280;40801;41.924;25.562;2024-02-15T07:14:46;100024.31;;;9.20;52.77
54900;BME280;40801;41.924;25.562;2024-02-15T07:17:12;100029.25;;;9.08;53.26
54900;BME280;40801;41.924;25.562;2024-02-15T07:19:42;100030.84;;;9.14;52.46
54900;BME280;40801;41.924;25.562;2024-02-15T07:22:08;100029.66;;;9.25;52.64
54900;BME280;40801;41.924;25.562;2024-02-15T07:24:34;100037.41;;;9.37;52.88
54900;BME280;40801;41.924;25.562;2024-02-15T07:26:59;100035.81;;;9.36;52.82
54900;BME280;40801;41.924;25.562;2024-02-15T07:29:24;100032.41;;;9.54;52.56
54900;BME280;40801;41.924;25.562;2024-02-15T07:31:50;100031.63;;;9.53;52.51
54900;BME280;40801;41.924;25.562;2024-02-15T07:34:16;100033.44;;;9.63;52.10
54900;BME280;40801;41.924;25.562;2024-02-15T07:36:42;100040.81;;;9.81;52.20
54900;BME280;40801;41.924;25.562;2024-02-15T07:39:08;100038.72;;;9.73;52.59
54900;BME280;40801;41.924;25.562;2024-02-15T07:41:37;100044.22;;;9.92;52.20
54900;BME280;40801;41.924;25.562;2024-02-15T07:44:03;100057.19;;;9.90;52.00
54900;BME280;40801;41.924;25.562;2024-02-15T07:46:29;100047.03;;;9.77;52.23
54900;BME280;40801;41.924;25.562;2024-02-15T07:48:54;100045.16;;;9.77;52.09
54900;BME280;40801;41.924;25.562;2024-02-15T07:51:22;100039.88;;;9.67;51.86
54900;BME280;40801;41.924;25.562;2024-02-15T07:53:48;100035.41;;;9.86;51.69
54900;BME280;40801;41.924;25.562;2024-02-15T07:56:14;100033.34;;;10.02;51.89
54900;BME280;40801;41.924;25.562;2024-02-15T07:58:44;100043.66;;;10.24;50.71
54900;BME280;40801;41.924;25.562;2024-02-15T08:01:15;100039.38;;;10.23;50.34
54900;BME280;40801;41.924;25.562;2024-02-15T08:03:47;100029.31;;;10.29;50.66
54900;BME280;40801;41.924;25.562;2024-02-15T08:06:14;100035.00;;;10.51;50.48
54900;BME280;40801;41.924;25.562;2024-02-15T08:08:44;100035.28;;;10.49;50.15
54900;BME280;40801;41.924;25.562;2024-02-15T08:11:13;100033.59;;;10.77;49.57
54900;BME280;40801;41.924;25.562;2024-02-15T08:13:48;100030.63;;;10.55;48.80
54900;BME280;40801;41.924;25.562;2024-02-15T08:16:22;100024.13;;;10.80;48.46
54900;BME280;40801;41.924;25.562;2024-02-15T08:18:48;100024.66;;;11.01;49.41
54900;BME280;40801;41.924;25.562;2024-02-15T08:21:17;100020.84;;;11.39;49.22
54900;BME280;40801;41.924;25.562;2024-02-15T08:23:42;100020.06;;;12.45;48.58
54900;BME280;40801;41.924;25.562;2024-02-15T08:26:08;100013.16;;;13.61;46.84
54900;BME280;40801;41.924;25.562;2024-02-15T08:28:36;100010.88;;;14.47;44.90
54900;BME280;40801;41.924;25.562;2024-02-15T08:31:01;100011.09;;;15.55;42.68
54900;BME280;40801;41.924;25.562;2024-02-15T08:33:29;99996.72;;;15.54;40.95
54900;BME280;40801;41.924;25.562;2024-02-15T08:35:55;100006.78;;;16.26;39.54
54900;BME280;40801;41.924;25.562;2024-02-15T08:38:25;99997.75;;;16.93;38.69
54900;BME280;40801;41.924;25.562;2024-02-15T08:40:50;99993.84;;;17.24;35.17
54900;BME280;40801;41.924;25.562;2024-02-15T08:43:15;100003.97;;;17.56;36.71
54900;BME280;40801;41.924;25.562;2024-02-15T08:45:42;99995.84;;;18.26;36.15
54900;BME280;40801;41.924;25.562;2024-02-15T08:48:08;99991.34;;;18.95;35.05
54900;BME280;40801;41.924;25.562;2024-02-15T08:50:33;99994.84;;;19.07;33.40
54900;BME280;40801;41.924;25.562;2024-02-15T08:52:59;99989.31;;;18.92;33.93
54900;BME280;40801;41.924;25.562;2024-02-15T08:55:24;100009.69;;;18.45;33.84
54900;BME280;40801;41.924;25.562;2024-02-15T08:57:53;100003.34;;;18.66;33.42
54900;BME280;40801;41.924;25.562;2024-02-15T09:00:19;99996.72;;;18.91;32.79
54900;BME280;40801;41.924;25.562;2024-02-15T09:02:46;99995.06;;;19.02;31.65
54900;BME280;40801;41.924;25.562;2024-02-15T09:05:12;99992.75;;;19.57;32.45
54900;BME280;40801;41.924;25.562;2024-02-15T09:07:43;99985.44;;;19.92;30.35
54900;BME280;40801;41.924;25.562;2024-02-15T09:10:09;99989.44;;;19.51;31.28
54900;BME280;40801;41.924;25.562;2024-02-15T09:12:36;99988.72;;;19.82;32.18
54900;BME280;40801;41.924;25.562;2024-02-15T09:15:04;99989.94;;;19.13;30.14
54900;BME280;40801;41.924;25.562;2024-02-15T09:17:30;99982.13;;;19.99;31.35
54900;BME280;40801;41.924;25.562;2024-02-15T09:19:58;99991.94;;;19.56;31.32
54900;BME280;40801;41.924;25.562;2024-02-15T09:22:24;99978.50;;;20.42;30.92
54900;BME280;40801;41.924;25.562;2024-02-15T09:24:49;99981.03;;;20.35;29.98
54900;BME280;40801;41.924;25.562;2024-02-15T09:27:14;99960.97;;;20.47;30.28
54900;BME280;40801;41.924;25.562;2024-02-15T09:29:40;99965.00;;;20.68;29.38
54900;BME280;40801;41.924;25.562;2024-02-15T09:32:06;99966.28;;;20.24;30.01
54900;BME280;40801;41.924;25.562;2024-02-15T09:34:32;99969.50;;;20.26;30.35
54900;BME280;40801;41.924;25.562;2024-02-15T09:36:58;99963.88;;;21.08;28.93
54900;BME280;40801;41.924;25.562;2024-02-15T09:39:23;99971.19;;;21.20;29.05
54900;BME280;40801;41.924;25.562;2024-02-15T09:41:49;99960.28;;;21.04;28.76
54900;BME280;40801;41.924;25.562;2024-02-15T09:44:23;99965.28;;;20.63;28.92
54900;BME280;40801;41.924;25.562;2024-02-15T09:47:04;99967.97;;;19.81;29.40
54900;BME280;40801;41.924;25.562;2024-02-15T09:49:37;99958.41;;;19.59;30.01
54900;BME280;40801;41.924;25.562;2024-02-15T09:52:06;99959.28;;;19.63;30.57
54900;BME280;40801;41.924;25.562;2024-02-15T09:54:39;99961.34;;;19.38;30.79
54900;BME280;40801;41.924;25.562;2024-02-15T09:57:06;99958.69;;;19.86;30.41
54900;BME280;40801;41.924;25.562;2024-02-15T09:59:33;99947.47;;;19.31;30.51
54900;BME280;40801;41.924;25.562;2024-02-15T10:02:01;99963.28;;;18.09;31.71
54900;BME280;40801;41.924;25.562;2024-02-15T10:04:27;99954.47;;;17.67;32.44
54900;BME280;40801;41.924;25.562;2024-02-15T10:06:52;99956.47;;;17.57;32.91
54900;BME280;40801;41.924;25.562;2024-02-15T10:09:28;99950.44;;;17.52;32.55
54900;BME280;40801;41.924;25.562;2024-02-15T10:11:55;99936.81;;;16.98;33.65
54900;BME280;40801;41.924;25.562;2024-02-15T10:14:22;99938.38;;;17.08;34.23
54900;BME280;40801;41.924;25.562;2024-02-15T10:16:47;99938.97;;;17.25;34.13
54900;BME280;40801;41.924;25.562;2024-02-15T10:19:13;99936.66;;;17.36;34.17
54900;BME280;40801;41.924;25.562;2024-02-15T10:21:40;99930.25;;;16.99;34.46
54900;BME280;40801;41.924;25.562;2024-02-15T10:24:06;99929.50;;;17.77;34.48
54900;BME280;40801;41.924;25.562;2024-02-15T10:26:33;99925.31;;;18.04;33.54
54900;BME280;40801;41.924;25.562;2024-02-15T10:29:10;99932.91;;;18.10;33.34
54900;BME280;40801;41.924;25.562;2024-02-15T10:31:40;99933.47;;;18.16;33.45
54900;BME280;40801;41.924;25.562;2024-02-15T10:34:14;99936.75;;;17.73;33.59
54900;BME280;40801;41.924;25.562;2024-02-15T10:36:40;99932.78;;;17.82;33.31
54900;BME280;40801;41.924;25.562;2024-02-15T10:39:12;99929.97;;;17.58;32.86
54900;BME280;40801;41.924;25.562;2024-02-15T10:41:43;99930.72;;;17.34;33.45
54900;BME280;40801;41.924;25.562;2024-02-15T10:44:12;99926.72;;;16.98;33.91
54900;BME280;40801;41.924;25.562;2024-02-15T10:46:40;99923.22;;;16.77;34.48
54900;BME280;40801;41.924;25.562;2024-02-15T10:49:06;99926.84;;;17.02;34.49
54900;BME280;40801;41.924;25.562;2024-02-15T10:51:33;99929.47;;;17.31;34.10
54900;BME280;40801;41.924;25.562;2024-02-15T10:54:02;99923.72;;;17.12;34.01
54900;BME280;40801;41.924;25.562;2024-02-15T10:56:36;99932.84;;;16.75;34.46
54900;BME280;40801;41.924;25.562;2024-02-15T10:59:21;99928.75;;;16.60;34.42
54900;BME280;40801;41.924;25.562;2024-02-15T11:01:49;99922.19;;;16.61;35.03
54900;BME280;40801;41.924;25.562;2024-02-15T11:04:20;99917.44;;;16.79;34.42
54900;BME280;40801;41.924;25.562;2024-02-15T11:06:47;99920.66;;;17.59;34.05
54900;BME280;40801;41.924;25.562;2024-02-15T11:09:16;99920.84;;;18.36;34.03
54900;BME280;40801;41.924;25.562;2024-02-15T11:11:42;99910.47;;;18.66;31.67
54900;BME280;40801;41.924;25.562;2024-02-15T11:14:31;99910.50;;;18.29;32.15
54900;BME280;40801;41.924;25.562;2024-02-15T11:17:01;99911.88;;;17.74;33.05
54900;BME280;40801;41.924;25.562;2024-02-15T11:19:40;99908.59;;;17.93;32.93
54900;BME280;40801;41.924;25.562;2024-02-15T11:22:16;99908.47;;;17.77;32.85
54900;BME280;40801;41.924;25.562;2024-02-15T11:24:49;99907.78;;;17.68;33.25
54900;BME280;40801;41.924;25.562;2024-02-15T11:27:29;99909.25;;;17.78;32.10
54900;BME280;40801;41.924;25.562;2024-02-15T11:29:58;99905.03;;;17.92;32.76
54900;BME280;40801;41.924;25.562;2024-02-15T11:32:38;99900.38;;;17.69;32.82
54900;BME280;40801;41.924;25.562;2024-02-15T11:35:09;99904.38;;;17.05;32.89
54900;BME280;40801;41.924;25.562;2024-02-15T11:40:20;99889.81;;;16.38;34.68
54900;BME280;40801;41.924;25.562;2024-02-15T11:42:59;99886.25;;;16.47;34.72
54900;BME280;40801;41.924;25.562;2024-02-15T11:45:28;99889.28;;;16.45;35.12
54900;BME280;40801;41.924;25.562;2024-02-15T11:48:10;99895.34;;;16.30;35.16
54900;BME280;40801;41.924;25.562;2024-02-15T11:50:39;99895.53;;;16.25;35.15
54900;BME280;40801;41.924;25.562;2024-02-15T11:53:06;99896.53;;;16.20;35.39
54900;BME280;40801;41.924;25.562;2024-02-15T11:55:35;99887.78;;;16.35;35.24
54900;BME280;40801;41.924;25.562;2024-02-15T11:58:04;99887.00;;;16.05;35.53
54900;BME280;40801;41.924;25.562;2024-02-15T12:00:42;99890.22;;;16.28;35.30
54900;BME280;40801;41.924;25.562;2024-02-15T12:03:26;99888.66;;;16.19;35.38
54900;BME280;40801;41.924;25.562;2024-02-15T12:06:10;99890.56;;;15.97;35.55
54900;BME280;40801;41.924;25.562;2024-02-15T12:08:54;99888.38;;;15.91;35.92
54900;BME280;40801;41.924;25.562;2024-02-15T12:11:39;99888.84;;;15.84;35.93
54900;BME280;40801;41.924;25.562;2024-02-15T12:14:24;99890.69;;;15.71;36.12
54900;BME280;40801;41.924;25.562;2024-02-15T12:17:09;99880.81;;;15.49;36.63
54900;BME280;40801;41.924;25.562;2024-02-15T12:19:55;99881.97;;;15.40;37.41
54900;BME280;40801;41.924;25.562;2024-02-15T12:22:24;99885.41;;;15.58;37.08
54900;BME280;40801;41.924;25.562;2024-02-15T12:25:11;99886.59;;;15.39;37.24
54900;BME280;40801;41.924;25.562;2024-02-15T12:27:40;99894.75;;;15.39;37.41
54900;BME280;40801;41.924;25.562;2024-02-15T12:30:06;99892.66;;;15.45;37.09
54900;BME280;40801;41.924;25.562;2024-02-15T12:32:33;99886.09;;;15.46;37.12
54900;BME280;40801;41.924;25.562;2024-02-15T12:35:13;99882.13;;;15.43;37.23
54900;BME280;40801;41.924;25.562;2024-02-15T12:37:43;99881.78;;;15.62;37.02
54900;BME280;40801;41.924;25.562;2024-02-15T12:40:13;99877.31;;;15.40;37.18
54900;BME280;40801;41.924;25.562;2024-02-15T12:42:42;99875.44;;;15.24;37.22
54900;BME280;40801;41.924;25.562;2024-02-15T12:45:15;99874.78;;;15.27;36.99
54900;BME280;40801;41.924;25.562;2024-02-15T12:47:43;99869.22;;;15.14;37.62
54900;BME280;40801;41.924;25.562;2024-02-15T12:50:15;99867.47;;;15.01;38.02
54900;BME280;40801;41.924;25.562;2024-02-15T12:52:41;99870.53;;;15.00;37.94
54900;BME280;40801;41.924;25.562;2024-02-15T12:55:24;99867.81;;;15.08;37.21
54900;BME280;40801;41.924;25.562;2024-02-15T12:57:51;99869.88;;;15.03;37.76
54900;BME280;40801;41.924;25.562;2024-02-15T13:00:19;99877.25;;;14.94;38.06
54900;BME280;40801;41.924;25.562;2024-02-15T13:02:47;99863.03;;;14.88;38.13
54900;BME280;40801;41.924;25.562;2024-02-15T13:05:15;99864.97;;;14.87;37.79